sensor_id;sensor_type;location;lat;lon;timestamp;P1;durP1;ratioP1;P2;durP2;ratioP2
7525;SDS011;3804;50.860;6.208;2022-12-18T00:01:30;28.83;;;17.80;;
7525;SDS011;3804;50.860;6.208;2022-12-18T00:03:58;30.58;;;17.67;;
7525;SDS011;3804;50.860;6.208;2022-12-18T00:06:25;30.02;;;18.45;;
7525;SDS011;3804;50.860;6.208;2022-12-18T00:08:53;25.85;;;17.33;;
7525;SDS011;3804;50.860;6.208;2022-12-18T00:11:22;30.95;;;19.15;;
7525;SDS011;3804;50.860;6.208;2022-12-18T00:13:49;29.90;;;18.38;;
7525;SDS011;3804;50.860;6.208;2022-12-18T00:16:17;31.73;;;18.02;;
7525;SDS011;3804;50.860;6.208;2022-12-18T00:18:47;27.52;;;17.30;;
7525;SDS011;3804;50.860;6.208;2022-12-18T00:21:14;49.28;;;24.90;;
7525;SDS011;3804;50.860;6.208;2022-12-18T00:23:41;29.95;;;19.80;;
7525;SDS011;3804;50.860;6.208;2022-12-18T00:26:18;31.08;;;18.05;;
7525;SDS011;3804;50.860;6.208;2022-12-18T00:28:45;27.58;;;17.15;;
7525;SDS011;3804;50.860;6.208;2022-12-18T00:31:14;28.05;;;16.83;;
7525;SDS011;3804;50.860;6.208;2022-12-18T00:33:41;31.05;;;17.88;;
7525;SDS011;3804;50.860;6.208;2022-12-18T00:36:10;24.40;;;15.85;;
7525;SDS011;3804;50.860;6.208;2022-12-18T00:38:37;26.65;;;17.02;;
7525;SDS011;3804;50.860;6.208;2022-12-18T00:41:04;26.30;;;15.90;;
7525;SDS011;3804;50.860;6.208;2022-12-18T00:43:34;26.77;;;16.38;;
7525;SDS011;3804;50.860;6.208;2022-12-18T00:46:01;26.25;;;16.60;;
7525;SDS011;3804;50.860;6.208;2022-12-18T00:48:28;27.35;;;18.13;;
7525;SDS011;3804;50.860;6.208;2022-12-18T00:50:55;27.55;;;16.52;;
7525;SDS011;3804;50.860;6.208;2022-12-18T00:53:22;24.88;;;16.35;;
7525;SDS011;3804;50.860;6.208;2022-12-18T00:55:48;27.85;;;16.10;;
7525;SDS011;3804;50.860;6.208;2022-12-18T00:58:15;26.98;;;15.18;;
7525;SDS011;3804;50.860;6.208;2022-12-18T01:00:42;23.15;;;14.75;;
7525;SDS011;3804;50.860;6.208;2022-12-18T01:03:12;24.48;;;15.05;;
7525;SDS011;3804;50.860;6.208;2022-12-18T01:05:41;20.50;;;13.57;;
7525;SDS011;3804;50.860;6.208;2022-12-18T01:08:08;22.25;;;13.80;;
7525;SDS011;3804;50.860;6.208;2022-12-18T01:10:35;24.88;;;14.27;;
7525;SDS011;3804;50.860;6.208;2022-12-18T01:13:02;25.35;;;14.27;;
7525;SDS011;3804;50.860;6.208;2022-12-18T01:15:29;25.23;;;14.90;;
7525;SDS011;3804;50.860;6.208;2022-12-18T01:17:55;23.67;;;14.07;;
7525;SDS011;3804;50.860;6.208;2022-12-18T01:20:22;23.13;;;14.38;;
7525;SDS011;3804;50.860;6.208;2022-12-18T01:22:49;21.42;;;13.13;;
7525;SDS011;3804;50.860;6.208;2022-12-18T01:25:16;22.60;;;13.18;;
7525;SDS011;3804;50.860;6.208;2022-12-18T01:27:42;20.55;;;12.75;;
7525;SDS011;3804;50.860;6.208;2022-12-18T01:30:09;21.05;;;13.02;;
7525;SDS011;3804;50.860;6.208;2022-12-18T01:32:36;23.38;;;13.18;;
7525;SDS011;3804;50.860;6.208;2022-12-18T01:35:03;23.98;;;13.55;;
7525;SDS011;3804;50.860;6.208;2022-12-18T01:37:29;24.98;;;13.77;;
7525;SDS011;3804;50.860;6.208;2022-12-18T01:39:56;20.13;;;12.88;;
7525;SDS011;3804;50.860;6.208;2022-12-18T01:42:23;22.60;;;12.68;;
7525;SDS011;3804;50.860;6.208;2022-12-18T01:45:00;23.92;;;12.60;;
7525;SDS011;3804;50.860;6.208;2022-12-18T01:49:54;20.00;;;12.00;;
7525;SDS011;3804;50.860;6.208;2022-12-18T01:52:21;21.38;;;12.35;;
7525;SDS011;3804;50.860;6.208;2022-12-18T01:54:49;18.92;;;12.07;;
7525;SDS011;3804;50.860;6.208;2022-12-18T01:57:18;20.33;;;12.75;;
7525;SDS011;3804;50.860;6.208;2022-12-18T01:59:45;25.67;;;13.60;;
7525;SDS011;3804;50.860;6.208;2022-12-18T02:02:14;22.30;;;12.80;;
7525;SDS011;3804;50.860;6.208;2022-12-18T02:04:42;22.10;;;12.27;;
7525;SDS011;3804;50.860;6.208;2022-12-18T02:07:17;25.25;;;14.48;;
7525;SDS011;3804;50.860;6.208;2022-12-18T02:10:00;22.15;;;13.88;;
7525;SDS011;3804;50.860;6.208;2022-12-18T02:12:38;25.23;;;12.82;;
7525;SDS011;3804;50.860;6.208;2022-12-18T02:15:16;24.48;;;14.25;;
7525;SDS011;3804;50.860;6.208;2022-12-18T02:17:54;27.85;;;15.95;;
7525;SDS011;3804;50.860;6.208;2022-12-18T02:27:52;24.33;;;14.88;;
7525;SDS011;3804;50.860;6.208;2022-12-18T02:30:20;30.40;;;17.20;;
7525;SDS011;3804;50.860;6.208;2022-12-18T02:32:49;24.23;;;15.30;;
7525;SDS011;3804;50.860;6.208;2022-12-18T02:35:22;24.10;;;14.85;;
7525;SDS011;3804;50.860;6.208;2022-12-18T02:37:52;26.90;;;15.55;;
7525;SDS011;3804;50.860;6.208;2022-12-18T02:40:20;27.13;;;15.20;;
7525;SDS011;3804;50.860;6.208;2022-12-18T02:42:47;30.52;;;15.15;;
7525;SDS011;3804;50.860;6.208;2022-12-18T02:45:17;28.45;;;15.23;;
7525;SDS011;3804;50.860;6.208;2022-12-18T02:47:46;27.10;;;13.90;;
7525;SDS011;3804;50.860;6.208;2022-12-18T02:50:19;30.48;;;16.02;;
7525;SDS011;3804;50.860;6.208;2022-12-18T02:58:03;30.45;;;18.05;;
7525;SDS011;3804;50.860;6.208;2022-12-18T03:00:40;29.85;;;17.67;;
7525;SDS011;3804;50.860;6.208;2022-12-18T03:03:16;32.80;;;17.88;;
7525;SDS011;3804;50.860;6.208;2022-12-18T03:08:22;29.00;;;17.00;;
7525;SDS011;3804;50.860;6.208;2022-12-18T03:10:55;29.70;;;17.52;;
7525;SDS011;3804;50.860;6.208;2022-12-18T03:13:35;32.80;;;17.08;;
7525;SDS011;3804;50.860;6.208;2022-12-18T03:16:04;28.65;;;16.60;;
7525;SDS011;3804;50.860;6.208;2022-12-18T03:18:33;33.15;;;16.08;;
7525;SDS011;3804;50.860;6.208;2022-12-18T03:21:02;31.80;;;17.25;;
7525;SDS011;3804;50.860;6.208;2022-12-18T03:23:38;32.67;;;17.27;;
7525;SDS011;3804;50.860;6.208;2022-12-18T03:26:09;30.17;;;16.45;;
7525;SDS011;3804;50.860;6.208;2022-12-18T03:28:40;34.05;;;16.83;;
7525;SDS011;3804;50.860;6.208;2022-12-18T03:31:09;31.83;;;16.30;;
7525;SDS011;3804;50.860;6.208;2022-12-18T03:33:41;28.58;;;15.43;;
7525;SDS011;3804;50.860;6.208;2022-12-18T03:36:08;27.02;;;15.55;;
7525;SDS011;3804;50.860;6.208;2022-12-18T03:38:36;30.70;;;16.13;;
7525;SDS011;3804;50.860;6.208;2022-12-18T03:44:40;31.00;;;16.50;;
7525;SDS011;3804;50.860;6.208;2022-12-18T03:47:16;29.88;;;16.13;;
7525;SDS011;3804;50.860;6.208;2022-12-18T03:50:01;31.52;;;16.67;;
7525;SDS011;3804;50.860;6.208;2022-12-18T03:52:41;34.03;;;16.67;;
7525;SDS011;3804;50.860;6.208;2022-12-18T03:55:09;30.85;;;16.45;;
7525;SDS011;3804;50.860;6.208;2022-12-18T03:57:38;30.50;;;16.40;;
7525;SDS011;3804;50.860;6.208;2022-12-18T04:00:06;30.15;;;16.40;;
7525;SDS011;3804;50.860;6.208;2022-12-18T04:02:41;29.15;;;15.63;;
7525;SDS011;3804;50.860;6.208;2022-12-18T04:05:11;32.50;;;17.30;;
7525;SDS011;3804;50.860;6.208;2022-12-18T04:07:41;34.53;;;16.63;;
7525;SDS011;3804;50.860;6.208;2022-12-18T04:10:13;30.58;;;16.13;;
7525;SDS011;3804;50.860;6.208;2022-12-18T04:12:40;31.15;;;16.33;;
7525;SDS011;3804;50.860;6.208;2022-12-18T04:15:10;30.70;;;16.42;;
7525;SDS011;3804;50.860;6.208;2022-12-18T04:17:38;30.38;;;17.02;;
7525;SDS011;3804;50.860;6.208;2022-12-18T04:20:06;30.13;;;14.82;;
7525;SDS011;3804;50.860;6.208;2022-12-18T04:22:35;32.58;;;16.25;;
7525;SDS011;3804;50.860;6.208;2022-12-18T04:25:02;31.50;;;17.92;;
7525;SDS011;3804;50.860;6.208;2022-12-18T04:27:35;32.13;;;16.90;;
7525;SDS011;3804;50.860;6.208;2022-12-18T04:30:04;30.77;;;16.73;;
7525;SDS011;3804;50.860;6.208;2022-12-18T04:32:32;30.00;;;16.67;;
7525;SDS011;3804;50.860;6.208;2022-12-18T04:34:59;32.03;;;17.52;;
7525;SDS011;3804;50.860;6.208;2022-12-18T04:37:26;29.17;;;16.23;;
7525;SDS011;3804;50.860;6.208;2022-12-18T04:39:53;30.65;;;16.88;;
7525;SDS011;3804;50.860;6.208;2022-12-18T04:42:28;30.08;;;16.45;;
7525;SDS011;3804;50.860;6.208;2022-12-18T04:44:55;34.45;;;16.95;;
7525;SDS011;3804;50.860;6.208;2022-12-18T04:47:21;32.72;;;16.38;;
7525;SDS011;3804;50.860;6.208;2022-12-18T04:49:48;29.88;;;15.43;;
7525;SDS011;3804;50.860;6.208;2022-12-18T04:52:15;34.40;;;16.95;;
7525;SDS011;3804;50.860;6.208;2022-12-18T04:54:41;33.53;;;16.38;;
7525;SDS011;3804;50.860;6.208;2022-12-18T04:57:08;34.97;;;17.63;;
7525;SDS011;3804;50.860;6.208;2022-12-18T04:59:34;33.88;;;17.00;;
7525;SDS011;3804;50.860;6.208;2022-12-18T05:02:01;31.00;;;16.85;;
7525;SDS011;3804;50.860;6.208;2022-12-18T05:04:28;30.77;;;17.13;;
7525;SDS011;3804;50.860;6.208;2022-12-18T05:06:54;32.65;;;13.88;;
7525;SDS011;3804;50.860;6.208;2022-12-18T05:09:21;35.72;;;18.15;;
7525;SDS011;3804;50.860;6.208;2022-12-18T05:11:48;32.38;;;16.63;;
7525;SDS011;3804;50.860;6.208;2022-12-18T05:14:14;29.95;;;16.80;;
7525;SDS011;3804;50.860;6.208;2022-12-18T05:16:41;30.83;;;16.88;;
7525;SDS011;3804;50.860;6.208;2022-12-18T05:19:09;32.47;;;17.50;;
7525;SDS011;3804;50.860;6.208;2022-12-18T05:21:36;34.35;;;18.13;;
7525;SDS011;3804;50.860;6.208;2022-12-18T05:24:03;32.30;;;18.02;;
7525;SDS011;3804;50.860;6.208;2022-12-18T05:26:29;31.45;;;17.13;;
7525;SDS011;3804;50.860;6.208;2022-12-18T05:28:56;33.33;;;17.08;;
7525;SDS011;3804;50.860;6.208;2022-12-18T05:31:23;31.80;;;17.17;;
7525;SDS011;3804;50.860;6.208;2022-12-18T05:33:49;37.45;;;18.45;;
7525;SDS011;3804;50.860;6.208;2022-12-18T05:36:16;36.60;;;19.10;;
7525;SDS011;3804;50.860;6.208;2022-12-18T05:38:43;30.58;;;17.88;;
7525;SDS011;3804;50.860;6.208;2022-12-18T05:41:10;37.45;;;20.23;;
7525;SDS011;3804;50.860;6.208;2022-12-18T05:43:37;29.90;;;17.83;;
7525;SDS011;3804;50.860;6.208;2022-12-18T05:46:05;36.28;;;20.65;;
7525;SDS011;3804;50.860;6.208;2022-12-18T05:48:32;40.72;;;20.00;;
7525;SDS011;3804;50.860;6.208;2022-12-18T05:51:03;32.63;;;17.77;;
7525;SDS011;3804;50.860;6.208;2022-12-18T05:53:31;29.60;;;16.95;;
7525;SDS011;3804;50.860;6.208;2022-12-18T05:56:01;29.27;;;16.75;;
7525;SDS011;3804;50.860;6.208;2022-12-18T05:58:29;31.25;;;15.93;;
7525;SDS011;3804;50.860;6.208;2022-12-18T06:00:55;30.30;;;16.98;;
7525;SDS011;3804;50.860;6.208;2022-12-18T06:03:22;27.08;;;14.13;;
7525;SDS011;3804;50.860;6.208;2022-12-18T06:05:53;27.52;;;15.63;;
7525;SDS011;3804;50.860;6.208;2022-12-18T06:08:19;31.40;;;16.88;;
7525;SDS011;3804;50.860;6.208;2022-12-18T06:10:49;28.58;;;15.18;;
7525;SDS011;3804;50.860;6.208;2022-12-18T06:13:15;30.67;;;17.20;;
7525;SDS011;3804;50.860;6.208;2022-12-18T06:15:42;28.73;;;16.25;;
7525;SDS011;3804;50.860;6.208;2022-12-18T06:18:09;31.63;;;16.58;;
7525;SDS011;3804;50.860;6.208;2022-12-18T06:20:35;29.38;;;15.23;;
7525;SDS011;3804;50.860;6.208;2022-12-18T06:23:03;30.85;;;15.90;;
7525;SDS011;3804;50.860;6.208;2022-12-18T06:25:30;31.15;;;17.33;;
7525;SDS011;3804;50.860;6.208;2022-12-18T06:27:56;31.67;;;16.45;;
7525;SDS011;3804;50.860;6.208;2022-12-18T06:30:23;33.28;;;16.92;;
7525;SDS011;3804;50.860;6.208;2022-12-18T06:32:49;30.13;;;16.17;;
7525;SDS011;3804;50.860;6.208;2022-12-18T06:35:22;31.20;;;15.30;;
7525;SDS011;3804;50.860;6.208;2022-12-18T06:37:49;28.85;;;15.65;;
7525;SDS011;3804;50.860;6.208;2022-12-18T06:40:16;34.95;;;15.05;;
7525;SDS011;3804;50.860;6.208;2022-12-18T06:42:42;30.30;;;15.85;;
7525;SDS011;3804;50.860;6.208;2022-12-18T06:45:09;31.30;;;15.98;;
7525;SDS011;3804;50.860;6.208;2022-12-18T06:47:36;33.42;;;16.80;;
7525;SDS011;3804;50.860;6.208;2022-12-18T06:50:02;31.27;;;17.30;;
7525;SDS011;3804;50.860;6.208;2022-12-18T06:52:31;29.77;;;16.70;;
7525;SDS011;3804;50.860;6.208;2022-12-18T06:54:57;26.58;;;15.07;;
7525;SDS011;3804;50.860;6.208;2022-12-18T06:57:24;34.58;;;15.50;;
7525;SDS011;3804;50.860;6.208;2022-12-18T06:59:51;33.08;;;17.00;;
7525;SDS011;3804;50.860;6.208;2022-12-18T07:02:18;32.97;;;17.10;;
7525;SDS011;3804;50.860;6.208;2022-12-18T07:04:45;33.83;;;17.77;;
7525;SDS011;3804;50.860;6.208;2022-12-18T07:07:17;28.98;;;14.13;;
7525;SDS011;3804;50.860;6.208;2022-12-18T07:09:44;34.65;;;16.55;;
7525;SDS011;3804;50.860;6.208;2022-12-18T07:12:10;28.63;;;15.82;;
7525;SDS011;3804;50.860;6.208;2022-12-18T07:14:37;33.95;;;16.83;;
7525;SDS011;3804;50.860;6.208;2022-12-18T07:17:04;34.25;;;15.85;;
7525;SDS011;3804;50.860;6.208;2022-12-18T07:19:31;33.17;;;15.85;;
7525;SDS011;3804;50.860;6.208;2022-12-18T07:21:58;31.30;;;16.55;;
7525;SDS011;3804;50.860;6.208;2022-12-18T07:24:25;33.65;;;17.02;;
7525;SDS011;3804;50.860;6.208;2022-12-18T07:26:51;33.40;;;17.20;;
7525;SDS011;3804;50.860;6.208;2022-12-18T07:29:18;33.92;;;17.63;;
7525;SDS011;3804;50.860;6.208;2022-12-18T07:31:45;34.25;;;16.60;;
7525;SDS011;3804;50.860;6.208;2022-12-18T07:34:12;33.53;;;17.27;;
7525;SDS011;3804;50.860;6.208;2022-12-18T07:36:39;33.45;;;16.17;;
7525;SDS011;3804;50.860;6.208;2022-12-18T07:39:06;30.48;;;15.38;;
7525;SDS011;3804;50.860;6.208;2022-12-18T07:41:33;30.98;;;16.73;;
7525;SDS011;3804;50.860;6.208;2022-12-18T07:44:10;31.23;;;16.08;;
7525;SDS011;3804;50.860;6.208;2022-12-18T07:46:37;37.33;;;17.63;;
7525;SDS011;3804;50.860;6.208;2022-12-18T07:49:04;28.02;;;13.98;;
7525;SDS011;3804;50.860;6.208;2022-12-18T07:51:30;29.02;;;14.43;;
7525;SDS011;3804;50.860;6.208;2022-12-18T07:53:57;32.58;;;14.60;;
7525;SDS011;3804;50.860;6.208;2022-12-18T07:56:24;32.88;;;16.85;;
7525;SDS011;3804;50.860;6.208;2022-12-18T07:58:53;34.15;;;17.00;;
7525;SDS011;3804;50.860;6.208;2022-12-18T08:01:20;34.78;;;18.10;;
7525;SDS011;3804;50.860;6.208;2022-12-18T08:03:47;33.35;;;15.63;;
7525;SDS011;3804;50.860;6.208;2022-12-18T08:06:15;30.45;;;15.90;;
7525;SDS011;3804;50.860;6.208;2022-12-18T08:08:42;30.13;;;14.93;;
7525;SDS011;3804;50.860;6.208;2022-12-18T08:11:09;28.85;;;15.35;;
7525;SDS011;3804;50.860;6.208;2022-12-18T08:13:36;31.00;;;16.88;;
7525;SDS011;3804;50.860;6.208;2022-12-18T08:16:05;33.37;;;17.67;;
7525;SDS011;3804;50.860;6.208;2022-12-18T08:18:32;38.30;;;17.58;;
7525;SDS011;3804;50.860;6.208;2022-12-18T08:21:09;33.38;;;17.45;;
7525;SDS011;3804;50.860;6.208;2022-12-18T08:23:37;33.97;;;17.47;;
7525;SDS011;3804;50.860;6.208;2022-12-18T08:26:08;36.45;;;17.17;;
7525;SDS011;3804;50.860;6.208;2022-12-18T08:28:35;29.67;;;16.17;;
7525;SDS011;3804;50.860;6.208;2022-12-18T08:31:02;32.88;;;17.23;;
7525;SDS011;3804;50.860;6.208;2022-12-18T08:33:30;29.23;;;14.90;;
7525;SDS011;3804;50.860;6.208;2022-12-18T08:35:57;33.27;;;16.60;;
7525;SDS011;3804;50.860;6.208;2022-12-18T08:38:24;35.20;;;17.87;;
7525;SDS011;3804;50.860;6.208;2022-12-18T08:43:27;27.60;;;13.00;;
7525;SDS011;3804;50.860;6.208;2022-12-18T08:46:16;31.47;;;16.60;;
7525;SDS011;3804;50.860;6.208;2022-12-18T08:48:43;27.37;;;15.17;;
7525;SDS011;3804;50.860;6.208;2022-12-18T08:51:10;31.37;;;14.93;;
7525;SDS011;3804;50.860;6.208;2022-12-18T08:53:37;28.73;;;14.90;;
7525;SDS011;3804;50.860;6.208;2022-12-18T08:56:04;29.83;;;16.17;;
7525;SDS011;3804;50.860;6.208;2022-12-18T08:58:31;33.73;;;16.10;;
7525;SDS011;3804;50.860;6.208;2022-12-18T09:01:04;30.17;;;15.80;;
7525;SDS011;3804;50.860;6.208;2022-12-18T09:03:32;28.13;;;15.57;;
7525;SDS011;3804;50.860;6.208;2022-12-18T09:05:59;32.60;;;15.97;;
7525;SDS011;3804;50.860;6.208;2022-12-18T09:08:26;30.53;;;15.43;;
7525;SDS011;3804;50.860;6.208;2022-12-18T09:10:52;25.07;;;13.70;;
7525;SDS011;3804;50.860;6.208;2022-12-18T09:13:19;29.30;;;16.07;;
7525;SDS011;3804;50.860;6.208;2022-12-18T09:15:50;30.90;;;16.07;;
7525;SDS011;3804;50.860;6.208;2022-12-18T09:18:17;25.77;;;14.00;;
7525;SDS011;3804;50.860;6.208;2022-12-18T09:20:44;26.63;;;14.87;;
7525;SDS011;3804;50.860;6.208;2022-12-18T09:23:11;28.30;;;15.80;;
7525;SDS011;3804;50.860;6.208;2022-12-18T09:25:38;19.60;;;11.97;;
7525;SDS011;3804;50.860;6.208;2022-12-18T09:28:06;26.60;;;14.50;;
7525;SDS011;3804;50.860;6.208;2022-12-18T09:30:39;28.93;;;15.87;;
7525;SDS011;3804;50.860;6.208;2022-12-18T09:33:06;26.20;;;13.93;;
7525;SDS011;3804;50.860;6.208;2022-12-18T09:35:32;28.33;;;15.53;;
7525;SDS011;3804;50.860;6.208;2022-12-18T09:38:04;25.33;;;14.53;;
7525;SDS011;3804;50.860;6.208;2022-12-18T09:40:34;22.90;;;12.57;;
7525;SDS011;3804;50.860;6.208;2022-12-18T09:43:02;29.13;;;15.70;;
7525;SDS011;3804;50.860;6.208;2022-12-18T09:45:44;23.50;;;14.00;;
7525;SDS011;3804;50.860;6.208;2022-12-18T09:48:23;24.97;;;15.00;;
7525;SDS011;3804;50.860;6.208;2022-12-18T09:50:51;30.00;;;15.07;;
7525;SDS011;3804;50.860;6.208;2022-12-18T09:53:23;27.20;;;13.83;;
7525;SDS011;3804;50.860;6.208;2022-12-18T09:55:51;31.87;;;16.03;;
7525;SDS011;3804;50.860;6.208;2022-12-18T09:58:26;27.03;;;14.33;;
7525;SDS011;3804;50.860;6.208;2022-12-18T10:00:54;26.60;;;15.13;;
7525;SDS011;3804;50.860;6.208;2022-12-18T10:03:21;24.70;;;14.97;;
7525;SDS011;3804;50.860;6.208;2022-12-18T10:05:58;29.47;;;14.23;;
7525;SDS011;3804;50.860;6.208;2022-12-18T10:08:39;28.10;;;15.87;;
7525;SDS011;3804;50.860;6.208;2022-12-18T10:14:09;28.87;;;14.50;;
7525;SDS011;3804;50.860;6.208;2022-12-18T10:19:18;24.47;;;13.90;;
7525;SDS011;3804;50.860;6.208;2022-12-18T10:24:26;26.00;;;14.37;;
7525;SDS011;3804;50.860;6.208;2022-12-18T10:26:55;24.63;;;14.67;;
7525;SDS011;3804;50.860;6.208;2022-12-18T10:29:26;23.10;;;14.03;;
7525;SDS011;3804;50.860;6.208;2022-12-18T10:31:54;23.87;;;14.40;;
7525;SDS011;3804;50.860;6.208;2022-12-18T10:34:23;23.97;;;14.67;;
7525;SDS011;3804;50.860;6.208;2022-12-18T10:36:50;27.77;;;15.03;;
7525;SDS011;3804;50.860;6.208;2022-12-18T10:39:27;27.50;;;14.77;;
7525;SDS011;3804;50.860;6.208;2022-12-18T10:42:09;31.43;;;14.83;;
7525;SDS011;3804;50.860;6.208;2022-12-18T10:44:36;23.67;;;14.37;;
7525;SDS011;3804;50.860;6.208;2022-12-18T10:47:03;25.37;;;14.93;;
7525;SDS011;3804;50.860;6.208;2022-12-18T10:49:37;23.60;;;14.07;;
7525;SDS011;3804;50.860;6.208;2022-12-18T10:52:07;24.83;;;13.73;;
7525;SDS011;3804;50.860;6.208;2022-12-18T10:54:38;26.03;;;14.17;;
7525;SDS011;3804;50.860;6.208;2022-12-18T10:57:15;25.30;;;14.27;;
7525;SDS011;3804;50.860;6.208;2022-12-18T10:59:52;25.53;;;14.50;;
7525;SDS011;3804;50.860;6.208;2022-12-18T11:02:27;23.50;;;14.43;;
7525;SDS011;3804;50.860;6.208;2022-12-18T11:04:57;22.90;;;13.77;;
7525;SDS011;3804;50.860;6.208;2022-12-18T11:07:24;26.77;;;13.33;;
7525;SDS011;3804;50.860;6.208;2022-12-18T11:10:00;27.63;;;14.47;;
7525;SDS011;3804;50.860;6.208;2022-12-18T11:12:28;21.57;;;12.90;;
7525;SDS011;3804;50.860;6.208;2022-12-18T11:14:58;23.77;;;12.17;;
7525;SDS011;3804;50.860;6.208;2022-12-18T11:19:53;23.83;;;13.57;;
7525;SDS011;3804;50.860;6.208;2022-12-18T11:22:27;27.27;;;13.80;;
7525;SDS011;3804;50.860;6.208;2022-12-18T11:24:56;23.87;;;13.53;;
7525;SDS011;3804;50.860;6.208;2022-12-18T11:28:00;22.43;;;13.33;;
7525;SDS011;3804;50.860;6.208;2022-12-18T11:33:08;22.40;;;13.13;;
7525;SDS011;3804;50.860;6.208;2022-12-18T11:35:42;21.87;;;12.67;;
7525;SDS011;3804;50.860;6.208;2022-12-18T11:44:13;27.93;;;14.43;;
7525;SDS011;3804;50.860;6.208;2022-12-18T11:46:49;22.77;;;13.77;;
7525;SDS011;3804;50.860;6.208;2022-12-18T11:49:22;24.97;;;13.70;;
7525;SDS011;3804;50.860;6.208;2022-12-18T11:54:21;22.57;;;13.20;;
7525;SDS011;3804;50.860;6.208;2022-12-18T11:57:13;19.73;;;12.40;;
7525;SDS011;3804;50.860;6.208;2022-12-18T12:02:15;21.93;;;12.57;;
7525;SDS011;3804;50.860;6.208;2022-12-18T12:07:17;20.50;;;12.93;;
7525;SDS011;3804;50.860;6.208;2022-12-18T12:15:40;23.57;;;13.20;;
7525;SDS011;3804;50.860;6.208;2022-12-18T12:21:13;20.23;;;11.93;;
7525;SDS011;3804;50.860;6.208;2022-12-18T12:23:44;21.57;;;13.33;;
7525;SDS011;3804;50.860;6.208;2022-12-18T12:26:23;22.43;;;12.87;;
7525;SDS011;3804;50.860;6.208;2022-12-18T12:29:13;20.53;;;12.83;;
7525;SDS011;3804;50.860;6.208;2022-12-18T12:34:55;23.80;;;13.90;;
7525;SDS011;3804;50.860;6.208;2022-12-18T12:40:14;23.93;;;12.23;;
7525;SDS011;3804;50.860;6.208;2022-12-18T12:43:22;20.77;;;12.90;;
7525;SDS011;3804;50.860;6.208;2022-12-18T12:45:53;22.00;;;12.23;;
7525;SDS011;3804;50.860;6.208;2022-12-18T12:51:28;25.00;;;13.00;;
7525;SDS011;3804;50.860;6.208;2022-12-18T12:53:56;20.87;;;12.40;;
7525;SDS011;3804;50.860;6.208;2022-12-18T12:56:24;24.63;;;14.03;;
7525;SDS011;3804;50.860;6.208;2022-12-18T12:58:58;28.20;;;13.93;;
7525;SDS011;3804;50.860;6.208;2022-12-18T13:01:30;21.03;;;13.60;;
7525;SDS011;3804;50.860;6.208;2022-12-18T13:07:06;24.67;;;13.33;;
7525;SDS011;3804;50.860;6.208;2022-12-18T13:10:11;24.70;;;14.70;;
7525;SDS011;3804;50.860;6.208;2022-12-18T13:12:24;27.13;;;13.30;;
7525;SDS011;3804;50.860;6.208;2022-12-18T13:15:19;20.70;;;12.27;;
7525;SDS011;3804;50.860;6.208;2022-12-18T13:17:47;20.73;;;13.10;;
7525;SDS011;3804;50.860;6.208;2022-12-18T13:20:14;21.67;;;12.70;;
7525;SDS011;3804;50.860;6.208;2022-12-18T13:22:46;22.03;;;14.23;;
7525;SDS011;3804;50.860;6.208;2022-12-18T13:28:00;21.57;;;12.10;;
7525;SDS011;3804;50.860;6.208;2022-12-18T13:35:41;23.80;;;13.00;;
7525;SDS011;3804;50.860;6.208;2022-12-18T13:48:21;27.67;;;14.50;;
7525;SDS011;3804;50.860;6.208;2022-12-18T13:50:52;24.43;;;13.90;;
7525;SDS011;3804;50.860;6.208;2022-12-18T13:53:21;22.60;;;13.93;;
7525;SDS011;3804;50.860;6.208;2022-12-18T13:55:51;24.87;;;14.10;;
7525;SDS011;3804;50.860;6.208;2022-12-18T13:58:17;26.10;;;15.30;;
7525;SDS011;3804;50.860;6.208;2022-12-18T14:00:44;24.40;;;13.57;;
7525;SDS011;3804;50.860;6.208;2022-12-18T14:03:25;26.07;;;14.23;;
7525;SDS011;3804;50.860;6.208;2022-12-18T14:05:54;23.33;;;13.47;;
7525;SDS011;3804;50.860;6.208;2022-12-18T14:08:22;25.47;;;14.77;;
7525;SDS011;3804;50.860;6.208;2022-12-18T14:10:50;23.27;;;13.00;;
7525;SDS011;3804;50.860;6.208;2022-12-18T14:15:53;28.33;;;14.60;;
7525;SDS011;3804;50.860;6.208;2022-12-18T14:18:38;21.50;;;14.23;;
7525;SDS011;3804;50.860;6.208;2022-12-18T14:21:15;24.90;;;14.07;;
7525;SDS011;3804;50.860;6.208;2022-12-18T14:23:43;21.60;;;12.47;;
7525;SDS011;3804;50.860;6.208;2022-12-18T14:26:24;18.77;;;11.77;;
7525;SDS011;3804;50.860;6.208;2022-12-18T14:28:53;23.37;;;13.87;;
7525;SDS011;3804;50.860;6.208;2022-12-18T14:31:21;25.80;;;14.10;;
7525;SDS011;3804;50.860;6.208;2022-12-18T14:33:48;25.67;;;13.90;;
7525;SDS011;3804;50.860;6.208;2022-12-18T14:36:37;25.20;;;15.60;;
7525;SDS011;3804;50.860;6.208;2022-12-18T14:39:03;25.80;;;14.70;;
7525;SDS011;3804;50.860;6.208;2022-12-18T14:41:29;23.47;;;13.50;;
7525;SDS011;3804;50.860;6.208;2022-12-18T14:43:56;31.90;;;14.80;;
7525;SDS011;3804;50.860;6.208;2022-12-18T14:46:44;24.57;;;14.13;;
7525;SDS011;3804;50.860;6.208;2022-12-18T14:51:48;28.17;;;14.67;;
7525;SDS011;3804;50.860;6.208;2022-12-18T14:54:16;23.13;;;13.90;;
7525;SDS011;3804;50.860;6.208;2022-12-18T14:56:44;26.10;;;14.57;;
7525;SDS011;3804;50.860;6.208;2022-12-18T14:59:15;25.43;;;14.73;;
7525;SDS011;3804;50.860;6.208;2022-12-18T15:04:36;28.57;;;16.60;;
7525;SDS011;3804;50.860;6.208;2022-12-18T15:09:39;23.33;;;14.87;;
7525;SDS011;3804;50.860;6.208;2022-12-18T15:12:26;31.17;;;16.33;;
7525;SDS011;3804;50.860;6.208;2022-12-18T15:14:55;27.13;;;15.17;;
7525;SDS011;3804;50.860;6.208;2022-12-18T15:17:22;26.20;;;14.67;;
7525;SDS011;3804;50.860;6.208;2022-12-18T15:19:52;26.90;;;15.00;;
7525;SDS011;3804;50.860;6.208;2022-12-18T15:24:49;26.40;;;14.40;;
7525;SDS011;3804;50.860;6.208;2022-12-18T15:27:20;28.70;;;16.37;;
7525;SDS011;3804;50.860;6.208;2022-12-18T15:30:01;24.63;;;14.97;;
7525;SDS011;3804;50.860;6.208;2022-12-18T15:32:28;30.83;;;16.60;;
7525;SDS011;3804;50.860;6.208;2022-12-18T15:37:40;25.17;;;15.60;;
7525;SDS011;3804;50.860;6.208;2022-12-18T15:40:08;29.90;;;16.10;;
7525;SDS011;3804;50.860;6.208;2022-12-18T15:42:38;33.00;;;17.70;;
7525;SDS011;3804;50.860;6.208;2022-12-18T15:45:23;31.43;;;17.33;;
7525;SDS011;3804;50.860;6.208;2022-12-18T15:47:50;26.87;;;16.40;;
7525;SDS011;3804;50.860;6.208;2022-12-18T15:50:17;28.93;;;16.77;;
7525;SDS011;3804;50.860;6.208;2022-12-18T15:52:44;27.30;;;16.03;;
7525;SDS011;3804;50.860;6.208;2022-12-18T15:55:15;29.80;;;15.07;;
7525;SDS011;3804;50.860;6.208;2022-12-18T15:58:03;28.90;;;15.43;;
7525;SDS011;3804;50.860;6.208;2022-12-18T16:00:30;30.30;;;17.80;;
7525;SDS011;3804;50.860;6.208;2022-12-18T16:02:56;29.00;;;16.73;;
7525;SDS011;3804;50.860;6.208;2022-12-18T16:05:23;29.17;;;16.53;;
7525;SDS011;3804;50.860;6.208;2022-12-18T16:07:50;32.27;;;17.70;;
7525;SDS011;3804;50.860;6.208;2022-12-18T16:10:17;30.00;;;16.50;;
7525;SDS011;3804;50.860;6.208;2022-12-18T16:12:44;26.30;;;16.40;;
7525;SDS011;3804;50.860;6.208;2022-12-18T16:15:12;30.90;;;17.97;;
7525;SDS011;3804;50.860;6.208;2022-12-18T16:17:43;31.97;;;17.93;;
7525;SDS011;3804;50.860;6.208;2022-12-18T16:20:12;33.83;;;18.93;;
7525;SDS011;3804;50.860;6.208;2022-12-18T16:22:41;35.67;;;19.23;;
7525;SDS011;3804;50.860;6.208;2022-12-18T16:25:18;32.27;;;20.27;;
7525;SDS011;3804;50.860;6.208;2022-12-18T16:27:48;29.60;;;16.60;;
7525;SDS011;3804;50.860;6.208;2022-12-18T16:30:20;34.53;;;19.73;;
7525;SDS011;3804;50.860;6.208;2022-12-18T16:32:47;32.10;;;17.83;;
7525;SDS011;3804;50.860;6.208;2022-12-18T16:35:15;32.33;;;18.73;;
7525;SDS011;3804;50.860;6.208;2022-12-18T16:37:42;37.73;;;19.47;;
7525;SDS011;3804;50.860;6.208;2022-12-18T16:40:10;34.77;;;18.83;;
7525;SDS011;3804;50.860;6.208;2022-12-18T16:42:37;35.20;;;19.03;;
7525;SDS011;3804;50.860;6.208;2022-12-18T16:45:05;32.93;;;19.23;;
7525;SDS011;3804;50.860;6.208;2022-12-18T16:47:32;34.67;;;18.47;;
7525;SDS011;3804;50.860;6.208;2022-12-18T16:49:59;33.43;;;17.63;;